createdAt,value
2018-11-04T13:05:34.938Z,6.37
2018-11-04T13:08:11.029Z,6.13
2018-11-04T13:10:47.026Z,6.83
2018-11-04T13:13:23.561Z,6.57
2018-11-04T13:15:59.677Z,6.77
2018-11-04T13:18:35.884Z,6.07
2018-11-04T13:21:16.080Z,6.33
2018-11-04T13:24:02.712Z,5.93
2018-11-04T13:26:47.876Z,6.10
2018-11-04T13:29:32.724Z,8.10
2018-11-04T13:32:21.531Z,6.13
2018-11-04T13:35:02.322Z,7.10
2018-11-04T13:37:47.128Z,8.03
2018-11-04T13:40:31.542Z,8.60
2018-11-04T13:43:07.634Z,8.23
2018-11-04T13:45:44.049Z,9.80
2018-11-04T13:48:20.357Z,38.03
2018-11-04T13:50:56.344Z,23.77
2018-11-04T13:53:32.340Z,77.70
2018-11-04T13:56:12.901Z,39.43
2018-11-04T13:58:48.941Z,12.20
2018-11-04T14:01:25.068Z,8.30
2018-11-04T14:04:01.186Z,14.70
2018-11-04T14:06:37.452Z,19.20
2018-11-04T14:09:13.670Z,20.13
2018-11-04T14:11:49.818Z,72.40
2018-11-04T14:14:21.036Z,26.40
2018-11-04T14:17:01.001Z,15.23
2018-11-04T14:19:31.932Z,15.90
2018-11-04T14:22:03.163Z,15.33
2018-11-04T14:24:34.412Z,25.00
2018-11-04T14:27:11.609Z,17.57
2018-11-04T14:29:42.559Z,18.93
2018-11-04T14:32:14.357Z,16.17
2018-11-04T14:34:45.433Z,21.20
2018-11-04T14:37:16.621Z,24.77
2018-11-04T14:39:47.563Z,30.53
2018-11-04T14:42:22.948Z,40.30
2018-11-04T14:44:57.980Z,38.53
2018-11-04T14:47:28.962Z,38.73
2018-11-04T14:50:06.450Z,38.10
2018-11-04T14:52:51.917Z,44.77
2018-11-04T14:55:27.973Z,31.70
2018-11-04T14:58:04.521Z,32.53
2018-11-04T15:00:40.505Z,38.37
2018-11-04T15:03:25.272Z,39.63
2018-11-04T15:06:09.572Z,36.23
2018-11-04T15:08:50.840Z,42.07
2018-11-04T15:11:26.865Z,41.00
2018-11-04T15:14:02.936Z,35.23
2018-11-04T15:16:38.849Z,27.67
2018-11-04T15:19:15.680Z,41.70
2018-11-04T15:21:52.480Z,50.80
2018-11-04T15:24:34.445Z,103.77
2018-11-04T15:27:15.216Z,104.50
2018-11-04T15:29:55.289Z,34.43
2018-11-04T15:32:31.236Z,53.73
2018-11-04T15:35:13.535Z,44.83
2018-11-04T15:37:49.513Z,36.43
2018-11-04T15:40:34.936Z,21.10
2018-11-04T15:43:11.157Z,27.20
2018-11-04T15:45:47.208Z,54.90
2018-11-04T15:48:23.110Z,66.90
2018-11-04T15:51:04.412Z,83.97
2018-11-04T15:53:40.365Z,54.97
2018-11-04T15:56:25.781Z,46.87
2018-11-04T15:59:01.655Z,40.80
2018-11-04T16:01:37.752Z,46.77
2018-11-04T16:04:08.652Z,50.87
2018-11-04T16:06:39.717Z,52.63
2018-11-04T16:09:10.604Z,67.53
2018-11-04T16:11:46.932Z,63.40
2018-11-04T16:14:17.909Z,80.27
2018-11-04T16:16:48.869Z,117.43
2018-11-04T16:19:19.954Z,122.53
2018-11-04T16:21:50.991Z,113.87
2018-11-04T16:24:22.041Z,151.77
2018-11-04T16:26:54.914Z,111.07
2018-11-04T16:29:27.336Z,83.20
2018-11-04T16:31:59.485Z,94.47
2018-11-04T16:34:30.616Z,115.97
2018-11-04T16:37:01.602Z,151.37
2018-11-04T16:39:32.960Z,150.10
2018-11-04T16:42:04.043Z,102.43
2018-11-04T16:44:35.026Z,132.40
2018-11-04T16:47:06.365Z,91.47
2018-11-04T16:49:37.362Z,75.63
2018-11-04T16:52:10.378Z,68.60
2018-11-04T16:54:41.431Z,80.87
2018-11-04T16:57:12.419Z,100.83
2018-11-04T16:59:43.418Z,85.07
2018-11-04T17:02:14.452Z,108.50
2018-11-04T17:04:45.532Z,79.30
2018-11-04T17:07:16.968Z,93.43
2018-11-04T17:09:48.176Z,106.60
2018-11-04T17:12:20.231Z,219.50
2018-11-04T17:14:54.006Z,188.23
2018-11-04T17:17:25.641Z,215.40
2018-11-04T17:19:57.217Z,264.93
2018-11-04T17:22:28.305Z,142.87
2018-11-04T17:25:03.707Z,276.37
2018-11-04T17:27:35.636Z,231.17
2018-11-04T17:30:10.539Z,232.33
2018-11-04T17:32:41.545Z,147.23
2018-11-04T17:35:14.423Z,84.43
2018-11-04T17:37:49.844Z,65.50
2018-11-04T17:40:20.781Z,80.73
2018-11-04T17:42:51.821Z,82.90
2018-11-04T17:45:22.834Z,55.80
2018-11-04T17:47:54.039Z,87.70
2018-11-04T17:51:49.384Z,138.40
2018-11-04T17:54:20.377Z,140.60
2018-11-04T17:56:52.564Z,123.00
2018-11-04T17:59:24.223Z,125.37
2018-11-04T18:01:55.276Z,105.03
2018-11-04T18:04:28.158Z,121.17
2018-11-04T18:06:59.106Z,122.43
2018-11-04T18:09:30.853Z,110.13
2018-11-04T18:12:01.810Z,117.63
2018-11-04T18:14:32.818Z,99.13
2018-11-04T18:17:04.708Z,119.77
2018-11-04T18:19:35.727Z,102.63
2018-11-04T18:22:07.190Z,111.57
2018-11-04T18:24:38.913Z,69.10
2018-11-04T18:27:09.845Z,46.10
2018-11-04T18:29:40.922Z,28.40
2018-11-04T18:32:11.970Z,21.20
2018-11-04T18:34:43.091Z,61.60
2018-11-04T18:37:14.006Z,77.10
2018-11-04T18:39:45.044Z,76.83
2018-11-04T18:42:16.175Z,157.27
2018-11-04T18:44:47.225Z,179.40
2018-11-04T18:47:18.338Z,116.07
2018-11-04T18:49:49.377Z,108.90
2018-11-04T18:52:20.428Z,75.37
2018-11-04T18:54:52.299Z,130.40
2018-11-04T18:57:23.282Z,135.40
2018-11-04T18:59:54.569Z,91.70
2018-11-04T19:02:25.933Z,88.67
2018-11-04T19:04:56.855Z,64.93
2018-11-04T19:07:27.787Z,138.53
2018-11-04T19:09:59.337Z,73.10
2018-11-04T19:12:30.233Z,112.80
2018-11-04T19:15:01.425Z,82.60
2018-11-04T19:17:32.326Z,78.43
2018-11-04T19:20:04.519Z,58.63
2018-11-04T19:22:36.202Z,62.17
2018-11-04T19:25:08.250Z,61.03
2018-11-04T19:27:39.161Z,85.03
2018-11-04T19:30:12.801Z,89.33
2018-11-04T19:32:44.109Z,59.27
2018-11-04T19:35:16.049Z,54.20
2018-11-04T19:37:50.657Z,67.90
2018-11-04T19:40:34.386Z,152.90
2018-11-04T19:43:05.400Z,57.97
2018-11-04T19:45:36.529Z,60.20
2018-11-04T19:48:07.604Z,63.17
2018-11-04T19:50:38.746Z,72.20
2018-11-04T19:53:09.661Z,44.60
2018-11-04T19:55:40.723Z,46.77
2018-11-04T19:58:11.787Z,45.27
2018-11-04T20:00:42.951Z,62.17
2018-11-04T20:03:13.855Z,61.40
2018-11-04T20:05:45.011Z,56.90
2018-11-04T20:08:16.212Z,55.63
2018-11-04T20:10:47.589Z,74.43
2018-11-04T20:13:23.821Z,92.07
2018-11-04T20:15:54.903Z,87.83
2018-11-04T20:20:43.442Z,67.07
2018-11-04T20:23:14.543Z,95.30
2018-11-04T20:25:50.631Z,64.63
2018-11-04T20:28:21.715Z,54.03
2018-11-04T20:30:52.665Z,52.47
2018-11-04T20:33:23.922Z,69.90
2018-11-04T20:35:54.919Z,73.67
2018-11-04T20:38:31.154Z,58.30
2018-11-04T20:41:06.969Z,55.23
2018-11-04T20:43:37.942Z,47.60
2018-11-04T20:46:09.098Z,46.57
2018-11-04T20:49:47.801Z,57.07
2018-11-04T20:52:19.052Z,48.60
2018-11-04T20:54:50.086Z,45.70
2018-11-04T20:57:25.948Z,46.13
2018-11-04T21:00:02.551Z,49.67
2018-11-04T21:02:38.682Z,50.13
2018-11-04T21:05:14.847Z,40.00
2018-11-04T21:07:50.744Z,93.17
2018-11-04T21:10:26.755Z,43.67
2018-11-04T21:13:02.705Z,43.03
2018-11-04T21:15:41.382Z,33.97
2018-11-04T21:18:17.491Z,32.73
2018-11-04T21:20:57.188Z,34.00
2018-11-04T21:23:33.045Z,40.83
2018-11-04T21:26:10.352Z,49.17
2018-11-04T21:28:46.417Z,38.87
2018-11-04T21:31:22.890Z,34.97
2018-11-04T21:33:59.814Z,52.77
2018-11-04T21:36:36.155Z,31.37
2018-11-04T21:39:13.067Z,33.90
2018-11-04T21:41:49.109Z,30.43
2018-11-04T21:44:25.725Z,25.70
2018-11-04T21:47:01.743Z,27.70
2018-11-04T21:49:37.603Z,28.43
2018-11-04T21:52:13.953Z,33.90
2018-11-04T21:54:49.888Z,50.70
2018-11-04T21:57:25.859Z,43.87
2018-11-04T22:00:01.790Z,44.47
2018-11-04T22:02:37.850Z,55.07
2018-11-04T22:05:14.025Z,40.90
2018-11-04T22:07:50.072Z,33.23
2018-11-04T22:10:25.963Z,39.77
2018-11-04T22:13:02.209Z,33.47
2018-11-04T22:15:38.037Z,38.97
2018-11-04T22:18:13.894Z,25.40
2018-11-04T22:20:49.827Z,27.63
2018-11-04T22:23:25.990Z,24.50
2018-11-04T22:26:01.885Z,21.67
2018-11-04T22:28:37.765Z,29.83
2018-11-04T22:31:13.626Z,29.53
2018-11-04T22:33:50.314Z,53.57
2018-11-04T22:36:26.281Z,51.93
2018-11-04T22:39:02.950Z,30.50
2018-11-04T22:41:38.949Z,27.60
2018-11-04T22:44:14.841Z,30.90
2018-11-04T22:46:50.789Z,25.20
2018-11-04T22:49:26.834Z,33.43
2018-11-04T22:52:02.592Z,29.37
2018-11-04T22:54:38.548Z,27.93
2018-11-04T22:57:14.381Z,29.53
2018-11-04T22:59:50.324Z,25.83
2018-11-04T23:02:27.133Z,21.50
2018-11-04T23:05:08.117Z,27.73
2018-11-04T23:07:44.428Z,37.13
2018-11-04T23:10:21.172Z,24.07
2018-11-04T23:12:56.957Z,21.63
2018-11-04T23:15:33.042Z,26.17
2018-11-04T23:18:09.000Z,25.47
2018-11-04T23:20:50.953Z,20.57
2018-11-04T23:23:27.051Z,27.70
2018-11-04T23:26:02.992Z,24.77
2018-11-04T23:28:39.469Z,29.40
2018-11-04T23:31:15.518Z,22.80
2018-11-04T23:33:51.805Z,19.50
2018-11-04T23:36:28.332Z,15.23
2018-11-04T23:39:05.468Z,13.60
2018-11-04T23:41:41.538Z,12.37
2018-11-04T23:44:17.365Z,12.27
2018-11-04T23:46:53.436Z,14.40
2018-11-04T23:49:29.777Z,20.23
2018-11-04T23:52:05.724Z,16.03
2018-11-04T23:54:41.650Z,12.73
2018-11-04T23:57:17.501Z,13.07
2018-11-04T23:59:53.450Z,19.10
